createdAt,value
2023-05-03T00:00:56.000Z,95.8
2023-05-03T00:02:13.000Z,96
2023-05-03T00:03:44.000Z,96.5
2023-05-03T00:05:14.000Z,97.4
2023-05-03T00:06:45.000Z,97.6
2023-05-03T00:08:15.000Z,97.1
2023-05-03T00:09:46.000Z,96.9
2023-05-03T00:11:16.000Z,96.9
2023-05-03T00:12:47.000Z,97
2023-05-03T00:14:25.000Z,97.1
2023-05-03T00:15:56.000Z,97.4
2023-05-03T00:17:13.000Z,97.5
2023-05-03T00:18:30.000Z,97.5
2023-05-03T00:20:00.000Z,97.3
2023-05-03T00:21:31.000Z,97.1
2023-05-03T00:23:01.000Z,97
2023-05-03T00:26:02.000Z,97.5
2023-05-03T00:27:33.000Z,98
2023-05-03T00:29:03.000Z,98
2023-05-03T00:30:34.000Z,98
2023-05-03T00:32:04.000Z,98.1
2023-05-03T00:33:21.000Z,98.2
2023-05-03T00:34:38.000Z,98.2
2023-05-03T00:36:09.000Z,98.2
2023-05-03T00:37:39.000Z,98.1
2023-05-03T00:39:10.000Z,98.5
2023-05-03T00:40:40.000Z,98.3
2023-05-03T00:42:11.000Z,98.3
2023-05-03T00:43:41.000Z,98.3
2023-05-03T00:45:12.000Z,97.9
2023-05-03T00:46:42.000Z,98.2
2023-05-03T00:48:13.000Z,98.3
2023-05-03T00:49:30.000Z,98.4
2023-05-03T00:50:47.000Z,98.3
2023-05-03T00:52:17.000Z,98.2
2023-05-03T00:53:48.000Z,98.4
2023-05-03T00:55:18.000Z,98.3
2023-05-03T00:56:49.000Z,98.1
2023-05-03T00:58:19.000Z,98.1
2023-05-03T00:59:50.000Z,98.3
2023-05-03T01:01:21.000Z,98.4
2023-05-03T01:02:51.000Z,98.6
2023-05-03T01:04:22.000Z,98.9
2023-05-03T01:05:39.000Z,98.9
2023-05-03T01:06:55.000Z,99
2023-05-03T01:08:26.000Z,99
2023-05-03T01:09:57.000Z,99.1
2023-05-03T01:11:27.000Z,99.3
2023-05-03T01:12:58.000Z,99.1
2023-05-03T01:14:28.000Z,98.9
2023-05-03T01:15:59.000Z,99
2023-05-03T01:17:29.000Z,99.2
2023-05-03T01:19:00.000Z,99
2023-05-03T01:20:30.000Z,98.9
2023-05-03T01:21:47.000Z,98.9
2023-05-03T01:23:04.000Z,99.1
2023-05-03T01:24:35.000Z,99.4
2023-05-03T01:28:34.000Z,99.4
2023-05-03T01:31:19.000Z,99.5
2023-05-03T01:34:03.000Z,99.7
2023-05-03T01:36:48.000Z,99.7
2023-05-03T01:38:06.000Z,99.8
2023-05-03T01:39:33.000Z,100
2023-05-03T01:42:17.000Z,100
2023-05-03T01:45:02.000Z,100
2023-05-03T01:47:47.000Z,100
2023-05-03T01:50:31.000Z,100
2023-05-03T01:53:16.000Z,100
2023-05-03T01:56:00.000Z,100
2023-05-03T01:58:45.000Z,100
2023-05-03T02:01:30.000Z,100
2023-05-03T02:04:14.000Z,100
2023-05-03T02:05:32.000Z,100
2023-05-03T02:06:59.000Z,100
2023-05-03T02:09:44.000Z,100
2023-05-03T02:12:28.000Z,100
2023-05-03T02:15:13.000Z,99.8
2023-05-03T02:17:58.000Z,100
2023-05-03T02:20:42.000Z,100
2023-05-03T02:23:27.000Z,100
2023-05-03T02:26:12.000Z,100
2023-05-03T02:28:56.000Z,100
2023-05-03T02:31:41.000Z,100
2023-05-03T02:32:59.000Z,100
2023-05-03T02:34:25.000Z,100
2023-05-03T02:37:10.000Z,100
2023-05-03T02:39:55.000Z,100
2023-05-03T02:42:39.000Z,100
2023-05-03T02:45:24.000Z,100
2023-05-03T02:48:09.000Z,100
2023-05-03T02:50:53.000Z,100
2023-05-03T02:53:38.000Z,100
2023-05-03T02:56:23.000Z,100
2023-05-03T02:59:07.000Z,100
2023-05-03T03:00:25.000Z,100
2023-05-03T03:01:52.000Z,100
2023-05-03T03:04:37.000Z,100
2023-05-03T03:07:21.000Z,100
2023-05-03T03:10:06.000Z,100
2023-05-03T03:12:50.000Z,100
2023-05-03T03:15:35.000Z,100
2023-05-03T03:18:20.000Z,100
2023-05-03T03:21:04.000Z,100
2023-05-03T03:23:49.000Z,100
2023-05-03T03:26:34.000Z,100
2023-05-03T03:27:51.000Z,100
2023-05-03T03:29:18.000Z,100
2023-05-03T03:32:03.000Z,100
2023-05-03T03:34:48.000Z,100
2023-05-03T03:37:32.000Z,100
2023-05-03T03:40:17.000Z,100
2023-05-03T03:43:01.000Z,100
2023-05-03T03:45:46.000Z,100
2023-05-03T03:48:31.000Z,100
2023-05-03T03:51:15.000Z,100
2023-05-03T03:54:00.000Z,100
2023-05-03T03:55:18.000Z,100
2023-05-03T03:56:45.000Z,100
2023-05-03T03:59:29.000Z,100
2023-05-03T04:02:14.000Z,100
2023-05-03T04:04:59.000Z,100
2023-05-03T04:07:43.000Z,100
2023-05-03T04:10:28.000Z,100
2023-05-03T04:13:13.000Z,100
2023-05-03T04:15:57.000Z,100
2023-05-03T04:18:42.000Z,100
2023-05-03T04:21:26.000Z,100
2023-05-03T04:22:44.000Z,100
2023-05-03T04:24:11.000Z,100
2023-05-03T04:26:56.000Z,100
2023-05-03T04:29:40.000Z,100
2023-05-03T04:32:25.000Z,100
2023-05-03T04:35:10.000Z,100
2023-05-03T04:37:54.000Z,100
2023-05-03T04:40:39.000Z,100
2023-05-03T04:43:24.000Z,100
2023-05-03T04:46:08.000Z,100
2023-05-03T04:48:53.000Z,100
2023-05-03T04:50:11.000Z,100
2023-05-03T04:51:38.000Z,100
2023-05-03T04:54:22.000Z,100
2023-05-03T04:57:07.000Z,100
2023-05-03T04:59:51.000Z,100
2023-05-03T05:02:36.000Z,100
2023-05-03T05:05:21.000Z,100
2023-05-03T05:08:05.000Z,99.9
2023-05-03T05:10:50.000Z,99.7
2023-05-03T05:13:35.000Z,99.5
2023-05-03T05:16:19.000Z,99.4
2023-05-03T05:17:37.000Z,98
2023-05-03T05:19:04.000Z,97.7
2023-05-03T05:21:49.000Z,98
2023-05-03T05:24:33.000Z,97.9
2023-05-03T05:27:18.000Z,97.9
2023-05-03T05:30:03.000Z,97.4
2023-05-03T05:32:47.000Z,96.7
2023-05-03T05:35:32.000Z,96.8
2023-05-03T05:38:16.000Z,96.9
2023-05-03T05:41:01.000Z,97
2023-05-03T05:43:46.000Z,96.8
2023-05-03T05:45:04.000Z,96.8
2023-05-03T05:46:30.000Z,96.7
2023-05-03T05:49:15.000Z,96.4
2023-05-03T05:52:00.000Z,96.3
2023-05-03T05:54:44.000Z,96.2
2023-05-03T05:57:29.000Z,95.8
2023-05-03T06:00:14.000Z,95.3
2023-05-03T06:02:58.000Z,94.1
2023-05-03T06:05:43.000Z,92.7
2023-05-03T06:08:27.000Z,90.1
2023-05-03T06:11:12.000Z,87.3
2023-05-03T06:12:30.000Z,88.1
2023-05-03T06:13:57.000Z,87.3
2023-05-03T06:16:41.000Z,86.2
2023-05-03T06:19:26.000Z,85.4
2023-05-03T06:22:11.000Z,83
2023-05-03T06:24:55.000Z,83.3
2023-05-03T06:27:40.000Z,82.2
2023-05-03T06:30:25.000Z,83.2
2023-05-03T06:33:09.000Z,84.5
2023-05-03T06:35:54.000Z,82.4
2023-05-03T06:38:39.000Z,81.8
2023-05-03T06:39:56.000Z,79.8
2023-05-03T06:41:23.000Z,79.9
2023-05-03T06:44:08.000Z,78.9
2023-05-03T06:46:52.000Z,78
2023-05-03T06:49:37.000Z,75.7
2023-05-03T06:52:22.000Z,75.4
2023-05-03T06:55:06.000Z,74.9
2023-05-03T06:57:51.000Z,73
2023-05-03T07:00:36.000Z,72.9
2023-05-03T07:03:20.000Z,72.7
2023-05-03T07:06:05.000Z,74.3
2023-05-03T07:07:23.000Z,71.8
2023-05-03T07:08:50.000Z,70.3
2023-05-03T07:11:34.000Z,67.4
2023-05-03T07:14:19.000Z,68.6
2023-05-03T07:17:04.000Z,69.2
2023-05-03T07:19:48.000Z,68.5
2023-05-03T07:25:17.000Z,69.7
2023-05-03T07:28:02.000Z,68.9
2023-05-03T07:30:47.000Z,68.1
2023-05-03T07:33:31.000Z,65.9
2023-05-03T07:34:49.000Z,66.3
2023-05-03T07:36:16.000Z,66.3
2023-05-03T07:39:01.000Z,64.4
2023-05-03T07:41:45.000Z,63.8
2023-05-03T07:44:30.000Z,64
2023-05-03T07:50:16.000Z,60.5
2023-05-03T07:53:00.000Z,57.5
2023-05-03T07:55:45.000Z,56.6
2023-05-03T07:58:30.000Z,55
2023-05-03T08:01:14.000Z,52.7
2023-05-03T08:02:32.000Z,53.2
2023-05-03T08:03:59.000Z,54.8
2023-05-03T08:06:43.000Z,55.2
2023-05-03T08:09:28.000Z,52.9
2023-05-03T08:12:13.000Z,53.2
2023-05-03T08:14:57.000Z,49.1
2023-05-03T08:17:42.000Z,48.4
2023-05-03T08:20:27.000Z,50.5
2023-05-03T08:23:11.000Z,53.6
2023-05-03T08:25:56.000Z,48.2
2023-05-03T08:28:41.000Z,47
2023-05-03T08:29:58.000Z,44.7
2023-05-03T08:31:25.000Z,47.2
2023-05-03T08:34:10.000Z,44.4
2023-05-03T08:36:54.000Z,41.4
2023-05-03T08:39:39.000Z,42.3
2023-05-03T08:42:24.000Z,46.4
2023-05-03T08:45:08.000Z,44.7
2023-05-03T08:47:53.000Z,44.1
2023-05-03T08:50:38.000Z,43.4
2023-05-03T08:53:22.000Z,43.6
2023-05-03T08:56:07.000Z,48.3
2023-05-03T08:57:25.000Z,48.4
2023-05-03T08:58:52.000Z,47.5
2023-05-03T09:01:36.000Z,42.5
2023-05-03T09:04:21.000Z,43.9
2023-05-03T09:07:06.000Z,43.8
2023-05-03T09:09:50.000Z,43.4
2023-05-03T09:12:35.000Z,43.9
2023-05-03T09:15:19.000Z,43.5
2023-05-03T09:18:04.000Z,46.6
2023-05-03T09:20:49.000Z,47.1
2023-05-03T09:23:33.000Z,47.3
2023-05-03T09:24:51.000Z,45.3
2023-05-03T09:26:18.000Z,45.5
2023-05-03T09:29:03.000Z,45.6
2023-05-03T09:31:47.000Z,47.1
2023-05-03T09:34:32.000Z,42.8
2023-05-03T09:37:17.000Z,44.4
2023-05-03T09:40:01.000Z,43.4
2023-05-03T09:42:46.000Z,43.6
2023-05-03T09:45:30.000Z,41.4
2023-05-03T09:48:15.000Z,42
2023-05-03T09:51:00.000Z,42.6
2023-05-03T09:52:18.000Z,43.2
2023-05-03T09:53:44.000Z,43.6
2023-05-03T09:56:29.000Z,43.8
2023-05-03T09:59:14.000Z,41
2023-05-03T10:01:58.000Z,43.3
2023-05-03T10:07:28.000Z,42.5
2023-05-03T10:10:12.000Z,41.5
2023-05-03T10:12:57.000Z,40.9
2023-05-03T10:15:42.000Z,39.8
2023-05-03T10:18:26.000Z,38.9
2023-05-03T10:19:44.000Z,41.7
2023-05-03T10:21:11.000Z,40.4
2023-05-03T10:23:55.000Z,40.8
2023-05-03T10:26:40.000Z,41
2023-05-03T10:29:25.000Z,42.8
2023-05-03T10:32:09.000Z,39.1
2023-05-03T10:34:54.000Z,37.6
2023-05-03T10:40:23.000Z,39.7
2023-05-03T10:43:08.000Z,40.9
2023-05-03T10:45:53.000Z,39.7
2023-05-03T10:47:10.000Z,39.3
2023-05-03T10:48:37.000Z,40.5
2023-05-03T10:51:22.000Z,41.4
2023-05-03T10:54:07.000Z,44.2
2023-05-03T10:56:51.000Z,41.1
2023-05-03T10:59:36.000Z,43.5
2023-05-03T11:02:20.000Z,43.1
2023-05-03T11:05:05.000Z,38.9
2023-05-03T11:07:50.000Z,39.2
2023-05-03T11:10:34.000Z,40.9
2023-05-03T11:13:19.000Z,41.2
2023-05-03T11:14:37.000Z,41
2023-05-03T11:16:04.000Z,42.4
2023-05-03T11:18:48.000Z,41.6
2023-05-03T11:21:33.000Z,38.4
2023-05-03T11:24:18.000Z,42.7
2023-05-03T11:27:02.000Z,40.6
2023-05-03T11:29:47.000Z,40
2023-05-03T11:32:31.000Z,43
2023-05-03T11:35:16.000Z,45.4
2023-05-03T11:38:01.000Z,42.5
2023-05-03T11:40:45.000Z,42.3
2023-05-03T11:42:03.000Z,40.2
2023-05-03T11:43:30.000Z,44.3
2023-05-03T11:46:15.000Z,42.9
2023-05-03T11:48:59.000Z,42.8
2023-05-03T11:51:44.000Z,40.4
2023-05-03T11:54:29.000Z,41.3
2023-05-03T11:57:13.000Z,41.4
2023-05-03T11:59:58.000Z,42.6
2023-05-03T12:02:43.000Z,44.2
2023-05-03T12:05:27.000Z,44.4
2023-05-03T12:08:12.000Z,45.7
2023-05-03T12:09:30.000Z,41.8
2023-05-03T12:10:56.000Z,42.3
2023-05-03T12:13:41.000Z,44.2
2023-05-03T12:16:26.000Z,43.7
2023-05-03T12:19:10.000Z,45.1
2023-05-03T12:21:55.000Z,44.6
2023-05-03T12:24:40.000Z,44.5
2023-05-03T12:27:24.000Z,48.2
2023-05-03T12:30:09.000Z,46.8
2023-05-03T12:32:54.000Z,43.1
2023-05-03T12:35:38.000Z,43.5
2023-05-03T12:36:56.000Z,43.8
2023-05-03T12:38:23.000Z,44.5
2023-05-03T12:41:08.000Z,45.7
2023-05-03T12:43:52.000Z,43.1
2023-05-03T12:46:37.000Z,45.9
2023-05-03T12:49:21.000Z,44.1
2023-05-03T12:52:06.000Z,45.5
2023-05-03T12:54:51.000Z,45.1
2023-05-03T12:57:35.000Z,44.5
2023-05-03T13:00:20.000Z,45.4
2023-05-03T13:03:05.000Z,47.2
2023-05-03T13:04:23.000Z,47.2
2023-05-03T13:05:49.000Z,47.8
2023-05-03T13:08:34.000Z,46.4
2023-05-03T13:11:19.000Z,47.1
2023-05-03T13:14:03.000Z,48.8
2023-05-03T13:16:48.000Z,50.3
2023-05-03T13:19:32.000Z,48
2023-05-03T13:22:17.000Z,47.1
2023-05-03T13:25:02.000Z,48.1
2023-05-03T13:27:46.000Z,46.6
2023-05-03T13:30:31.000Z,47.7
2023-05-03T13:31:49.000Z,45.6
2023-05-03T13:33:16.000Z,46.6
2023-05-03T13:36:00.000Z,48.2
2023-05-03T13:38:45.000Z,47
2023-05-03T13:41:30.000Z,49.1
2023-05-03T13:44:14.000Z,47.1
2023-05-03T13:46:59.000Z,48.6
2023-05-03T13:49:44.000Z,46.3
2023-05-03T13:52:28.000Z,46.2
2023-05-03T13:55:13.000Z,47
2023-05-03T13:57:57.000Z,50.9
2023-05-03T13:59:15.000Z,47.1
2023-05-03T14:00:42.000Z,47.3
2023-05-03T14:03:27.000Z,47.5
2023-05-03T14:06:11.000Z,50.6
2023-05-03T14:08:56.000Z,48.2
2023-05-03T14:11:41.000Z,49
2023-05-03T14:14:25.000Z,45.6
2023-05-03T14:17:10.000Z,47.1
2023-05-03T14:19:55.000Z,48
2023-05-03T14:22:39.000Z,49.4
2023-05-03T14:25:24.000Z,47.5
2023-05-03T14:26:42.000Z,49.1
2023-05-03T14:28:09.000Z,46.4
2023-05-03T14:30:53.000Z,49.9
2023-05-03T14:33:38.000Z,48.5
2023-05-03T14:36:22.000Z,50.3
2023-05-03T14:39:07.000Z,50.2
2023-05-03T14:41:52.000Z,48.9
2023-05-03T14:44:36.000Z,47.3
2023-05-03T14:47:21.000Z,47.5
2023-05-03T14:50:06.000Z,46
2023-05-03T14:52:50.000Z,49.4
2023-05-03T14:54:08.000Z,48.3
2023-05-03T14:55:35.000Z,47.8
2023-05-03T14:58:20.000Z,44.8
2023-05-03T15:01:04.000Z,49.8
2023-05-03T15:03:49.000Z,47.7
2023-05-03T15:06:33.000Z,50.2
2023-05-03T15:09:18.000Z,48.5
2023-05-03T15:12:03.000Z,47.9
2023-05-03T15:14:47.000Z,50.5
2023-05-03T15:17:32.000Z,49
2023-05-03T15:20:17.000Z,47.1
2023-05-03T15:21:35.000Z,47.2
2023-05-03T15:23:01.000Z,47.3
2023-05-03T15:25:46.000Z,46.9
2023-05-03T15:28:31.000Z,48.5
2023-05-03T15:31:15.000Z,49.1
2023-05-03T15:34:00.000Z,49.8
2023-05-03T15:36:45.000Z,47.2
2023-05-03T15:39:29.000Z,50.4
2023-05-03T15:42:14.000Z,46.7
2023-05-03T15:44:58.000Z,48.1
2023-05-03T15:47:43.000Z,46.8
2023-05-03T15:49:01.000Z,48.1
2023-05-03T15:50:28.000Z,48
2023-05-03T15:53:12.000Z,49.7
2023-05-03T15:55:57.000Z,50.4
2023-05-03T15:58:42.000Z,47.3
2023-05-03T16:01:26.000Z,50.6
2023-05-03T16:04:11.000Z,51.5
2023-05-03T16:06:56.000Z,49.8
2023-05-03T16:09:40.000Z,50.3
2023-05-03T16:12:25.000Z,49
2023-05-03T16:15:09.000Z,50.8
2023-05-03T16:16:28.000Z,50
2023-05-03T16:17:54.000Z,49
2023-05-03T16:20:55.000Z,48
2023-05-03T16:23:40.000Z,49.1
2023-05-03T16:26:24.000Z,48.8
2023-05-03T16:29:09.000Z,49.8
2023-05-03T16:31:54.000Z,50.7
2023-05-03T16:34:38.000Z,49.6
2023-05-03T16:37:23.000Z,49.8
2023-05-03T16:40:08.000Z,50.7
2023-05-03T16:42:52.000Z,49.6
2023-05-03T16:44:10.000Z,49.8
2023-05-03T16:45:37.000Z,50.8
2023-05-03T16:48:22.000Z,49.1
2023-05-03T16:51:06.000Z,51
2023-05-03T16:53:51.000Z,49.2
2023-05-03T16:56:35.000Z,49.9
2023-05-03T16:59:20.000Z,50.8
2023-05-03T17:02:05.000Z,50.8
2023-05-03T17:04:49.000Z,51.3
2023-05-03T17:07:34.000Z,50.4
2023-05-03T17:10:19.000Z,50.9
2023-05-03T17:11:36.000Z,49.7
2023-05-03T17:13:03.000Z,50.3
2023-05-03T17:15:48.000Z,48
2023-05-03T17:18:33.000Z,47.8
2023-05-03T17:21:17.000Z,48.8
2023-05-03T17:24:02.000Z,49.6
2023-05-03T17:26:47.000Z,49.6
2023-05-03T17:29:31.000Z,49.4
2023-05-03T17:32:16.000Z,49.2
2023-05-03T17:35:00.000Z,49.5
2023-05-03T17:37:45.000Z,49.4
2023-05-03T17:39:03.000Z,49.7
2023-05-03T17:40:30.000Z,49.6
2023-05-03T17:43:14.000Z,49.6
2023-05-03T17:45:59.000Z,49.1
2023-05-03T17:48:44.000Z,50.5
2023-05-03T17:51:28.000Z,51.9
2023-05-03T17:54:13.000Z,51.7
2023-05-03T17:56:58.000Z,52.3
2023-05-03T17:59:42.000Z,50.4
2023-05-03T18:02:27.000Z,51
2023-05-03T18:05:11.000Z,50.9
2023-05-03T18:06:29.000Z,50.9
2023-05-03T18:07:56.000Z,51.1
2023-05-03T18:10:41.000Z,51.6
2023-05-03T18:13:25.000Z,52.8
2023-05-03T18:16:10.000Z,52.9
2023-05-03T18:18:55.000Z,53.2
2023-05-03T18:21:39.000Z,53.4
2023-05-03T18:24:24.000Z,54.4
2023-05-03T18:27:09.000Z,55.1
2023-05-03T18:29:53.000Z,55.6
2023-05-03T18:32:38.000Z,57.4
2023-05-03T18:33:56.000Z,57.6
2023-05-03T18:35:23.000Z,57.7
2023-05-03T18:38:07.000Z,57.4
2023-05-03T18:40:52.000Z,58
2023-05-03T18:43:36.000Z,58.1
2023-05-03T18:46:21.000Z,58.9
2023-05-03T18:49:06.000Z,59.6
2023-05-03T18:51:50.000Z,61.1
2023-05-03T18:54:35.000Z,59.9
2023-05-03T18:57:20.000Z,61.2
2023-05-03T19:00:04.000Z,63.8
2023-05-03T19:01:22.000Z,66.4
2023-05-03T19:02:49.000Z,67.4
2023-05-03T19:05:34.000Z,67.2
2023-05-03T19:08:18.000Z,67.8
2023-05-03T19:11:03.000Z,68.2
2023-05-03T19:13:47.000Z,68.7
2023-05-03T19:16:32.000Z,69.1
2023-05-03T19:19:17.000Z,68.6
2023-05-03T19:22:01.000Z,69.2
2023-05-03T19:24:46.000Z,69.2
2023-05-03T19:27:31.000Z,69.5
2023-05-03T19:28:49.000Z,69.1
2023-05-03T19:30:15.000Z,69.9
2023-05-03T19:33:00.000Z,70.4
2023-05-03T19:35:45.000Z,74.2
2023-05-03T19:38:29.000Z,72.7
2023-05-03T19:41:14.000Z,70.6
2023-05-03T19:43:59.000Z,70.2
2023-05-03T19:46:43.000Z,69.8
2023-05-03T19:49:28.000Z,72.1
2023-05-03T19:52:12.000Z,75.9
2023-05-03T19:54:57.000Z,75.8
2023-05-03T19:56:15.000Z,76.3
2023-05-03T19:57:42.000Z,76
2023-05-03T20:00:26.000Z,76.1
2023-05-03T20:03:11.000Z,75.7
2023-05-03T20:05:56.000Z,76
2023-05-03T20:08:40.000Z,75.8
2023-05-03T20:11:25.000Z,75.6
2023-05-03T20:14:10.000Z,75.6
2023-05-03T20:16:54.000Z,75.6
2023-05-03T20:19:39.000Z,75.9
2023-05-03T20:22:24.000Z,75.4
2023-05-03T20:23:41.000Z,76.1
2023-05-03T20:25:08.000Z,76
2023-05-03T20:27:53.000Z,76.5
2023-05-03T20:30:37.000Z,77
2023-05-03T20:33:22.000Z,77.8
2023-05-03T20:36:07.000Z,78.7
2023-05-03T20:38:51.000Z,78.8
2023-05-03T20:41:36.000Z,79.7
2023-05-03T20:44:21.000Z,79.4
2023-05-03T20:47:05.000Z,79.2
2023-05-03T20:49:50.000Z,79.6
2023-05-03T20:51:08.000Z,80.3
2023-05-03T20:52:35.000Z,79.7
2023-05-03T20:55:19.000Z,78.9
2023-05-03T20:58:04.000Z,79.9
2023-05-03T21:00:48.000Z,80.7
2023-05-03T21:03:33.000Z,81.2
2023-05-03T21:06:18.000Z,81.3
2023-05-03T21:09:02.000Z,81.1
2023-05-03T21:11:47.000Z,80.4
2023-05-03T21:14:32.000Z,80.5
2023-05-03T21:17:16.000Z,80.6
2023-05-03T21:18:34.000Z,80.9
2023-05-03T21:20:01.000Z,80.8
2023-05-03T21:22:46.000Z,80.2
2023-05-03T21:25:30.000Z,80.4
2023-05-03T21:28:15.000Z,81
2023-05-03T21:31:00.000Z,80.6
2023-05-03T21:33:44.000Z,81
2023-05-03T21:36:29.000Z,81.8
2023-05-03T21:39:13.000Z,82.6
2023-05-03T21:41:58.000Z,82.8
2023-05-03T21:44:43.000Z,81.6
2023-05-03T21:46:01.000Z,82.6
2023-05-03T21:47:27.000Z,82.3
2023-05-03T21:50:12.000Z,82.4
2023-05-03T21:52:57.000Z,83
2023-05-03T21:55:41.000Z,83.1
2023-05-03T21:58:26.000Z,81.5
2023-05-03T22:01:11.000Z,80.9
2023-05-03T22:03:55.000Z,80.9
2023-05-03T22:06:40.000Z,82.2
2023-05-03T22:09:24.000Z,81.5
2023-05-03T22:12:09.000Z,82.3
2023-05-03T22:13:27.000Z,82.9
2023-05-03T22:14:54.000Z,83.2
2023-05-03T22:17:38.000Z,83.7
2023-05-03T22:20:23.000Z,84.6
2023-05-03T22:23:08.000Z,85
2023-05-03T22:25:52.000Z,85.2
2023-05-03T22:28:37.000Z,85.9
2023-05-03T22:31:22.000Z,85.6
2023-05-03T22:34:06.000Z,86
2023-05-03T22:36:51.000Z,86.1
2023-05-03T22:39:36.000Z,86.5
2023-05-03T22:40:53.000Z,86.7
2023-05-03T22:42:20.000Z,87
2023-05-03T22:45:05.000Z,87.3
2023-05-03T22:47:49.000Z,86.7
2023-05-03T22:50:34.000Z,86.4
2023-05-03T22:53:19.000Z,86.6
2023-05-03T22:56:03.000Z,86.8
2023-05-03T22:58:48.000Z,86.5
2023-05-03T23:01:33.000Z,86.3
2023-05-03T23:04:17.000Z,86.8
2023-05-03T23:07:02.000Z,87.1
2023-05-03T23:08:20.000Z,87.3
2023-05-03T23:09:47.000Z,87.1
2023-05-03T23:12:31.000Z,87.3
2023-05-03T23:15:16.000Z,87.5
2023-05-03T23:18:01.000Z,87.6
2023-05-03T23:20:45.000Z,87.4
2023-05-03T23:23:30.000Z,88.3
2023-05-03T23:26:14.000Z,88.3
2023-05-03T23:28:59.000Z,88.2
2023-05-03T23:31:44.000Z,88.2
2023-05-03T23:34:28.000Z,88.4
2023-05-03T23:35:46.000Z,88.4
2023-05-03T23:37:13.000Z,88.4
2023-05-03T23:39:58.000Z,88.6
2023-05-03T23:42:42.000Z,88.6
2023-05-03T23:45:27.000Z,89.1
2023-05-03T23:48:12.000Z,89.8
2023-05-03T23:50:56.000Z,89.8
2023-05-03T23:53:41.000Z,89.8
2023-05-03T23:56:25.000Z,89.8
2023-05-03T23:59:10.000Z,90.2
